sensor_id;sensor_type;location;lat;lon;timestamp;P1;durP1;ratioP1;P2;durP2;ratioP2
69629;SDS011;56857;52.212;5.496;2023-06-14T00:01:31;8.35;;;2.78;;
69629;SDS011;56857;52.212;5.496;2023-06-14T00:03:59;8.73;;;3.67;;
69629;SDS011;56857;52.212;5.496;2023-06-14T00:06:24;8.70;;;3.40;;
69629;SDS011;56857;52.212;5.496;2023-06-14T00:08:49;10.77;;;2.92;;
69629;SDS011;56857;52.212;5.496;2023-06-14T00:11:15;6.23;;;2.90;;
69629;SDS011;56857;52.212;5.496;2023-06-14T00:13:40;10.18;;;3.50;;
69629;SDS011;56857;52.212;5.496;2023-06-14T00:16:05;10.57;;;3.50;;
69629;SDS011;56857;52.212;5.496;2023-06-14T00:18:30;8.43;;;4.13;;
69629;SDS011;56857;52.212;5.496;2023-06-14T00:20:56;7.65;;;3.40;;
69629;SDS011;56857;52.212;5.496;2023-06-14T00:23:21;8.20;;;3.40;;
69629;SDS011;56857;52.212;5.496;2023-06-14T00:25:46;12.15;;;3.42;;
69629;SDS011;56857;52.212;5.496;2023-06-14T00:28:12;8.23;;;3.25;;
69629;SDS011;56857;52.212;5.496;2023-06-14T00:30:37;8.60;;;3.60;;
69629;SDS011;56857;52.212;5.496;2023-06-14T00:33:03;8.70;;;3.40;;
69629;SDS011;56857;52.212;5.496;2023-06-14T00:35:28;8.20;;;3.05;;
69629;SDS011;56857;52.212;5.496;2023-06-14T00:37:53;10.23;;;3.33;;
69629;SDS011;56857;52.212;5.496;2023-06-14T00:40:19;8.93;;;3.60;;
69629;SDS011;56857;52.212;5.496;2023-06-14T00:42:44;10.32;;;3.00;;
69629;SDS011;56857;52.212;5.496;2023-06-14T00:45:09;10.10;;;3.25;;
69629;SDS011;56857;52.212;5.496;2023-06-14T00:47:35;10.05;;;3.50;;
69629;SDS011;56857;52.212;5.496;2023-06-14T00:50:02;10.68;;;2.83;;
69629;SDS011;56857;52.212;5.496;2023-06-14T00:52:28;10.93;;;3.33;;
69629;SDS011;56857;52.212;5.496;2023-06-14T00:54:53;7.00;;;2.80;;
69629;SDS011;56857;52.212;5.496;2023-06-14T00:57:19;8.63;;;3.25;;
69629;SDS011;56857;52.212;5.496;2023-06-14T00:59:48;8.93;;;3.22;;
69629;SDS011;56857;52.212;5.496;2023-06-14T01:02:14;7.38;;;3.08;;
69629;SDS011;56857;52.212;5.496;2023-06-14T01:04:40;6.28;;;2.88;;
69629;SDS011;56857;52.212;5.496;2023-06-14T01:07:15;9.25;;;3.40;;
69629;SDS011;56857;52.212;5.496;2023-06-14T01:09:58;12.20;;;3.63;;
69629;SDS011;56857;52.212;5.496;2023-06-14T01:15:46;10.52;;;2.92;;
69629;SDS011;56857;52.212;5.496;2023-06-14T01:18:12;7.95;;;3.45;;
69629;SDS011;56857;52.212;5.496;2023-06-14T01:20:37;6.47;;;3.40;;
69629;SDS011;56857;52.212;5.496;2023-06-14T01:23:03;8.48;;;3.22;;
69629;SDS011;56857;52.212;5.496;2023-06-14T01:25:28;7.50;;;2.58;;
69629;SDS011;56857;52.212;5.496;2023-06-14T01:27:58;7.90;;;2.67;;
69629;SDS011;56857;52.212;5.496;2023-06-14T01:30:25;10.40;;;3.17;;
69629;SDS011;56857;52.212;5.496;2023-06-14T01:32:53;8.82;;;3.47;;
69629;SDS011;56857;52.212;5.496;2023-06-14T01:35:21;7.57;;;3.17;;
69629;SDS011;56857;52.212;5.496;2023-06-14T01:37:47;9.63;;;3.45;;
69629;SDS011;56857;52.212;5.496;2023-06-14T01:40:14;6.38;;;3.20;;
69629;SDS011;56857;52.212;5.496;2023-06-14T01:42:40;9.45;;;3.00;;
69629;SDS011;56857;52.212;5.496;2023-06-14T01:45:07;8.65;;;3.25;;
69629;SDS011;56857;52.212;5.496;2023-06-14T01:47:34;7.05;;;3.00;;
69629;SDS011;56857;52.212;5.496;2023-06-14T01:50:00;7.75;;;2.85;;
69629;SDS011;56857;52.212;5.496;2023-06-14T01:52:26;9.48;;;3.20;;
69629;SDS011;56857;52.212;5.496;2023-06-14T01:54:51;7.90;;;2.90;;
69629;SDS011;56857;52.212;5.496;2023-06-14T01:57:17;7.68;;;2.92;;
69629;SDS011;56857;52.212;5.496;2023-06-14T01:59:42;7.30;;;2.95;;
69629;SDS011;56857;52.212;5.496;2023-06-14T02:02:07;9.32;;;3.13;;
69629;SDS011;56857;52.212;5.496;2023-06-14T02:04:33;5.82;;;2.70;;
69629;SDS011;56857;52.212;5.496;2023-06-14T02:06:58;8.90;;;2.97;;
69629;SDS011;56857;52.212;5.496;2023-06-14T02:09:24;11.32;;;3.05;;
69629;SDS011;56857;52.212;5.496;2023-06-14T02:11:49;8.90;;;3.55;;
69629;SDS011;56857;52.212;5.496;2023-06-14T02:14:14;6.85;;;2.70;;
69629;SDS011;56857;52.212;5.496;2023-06-14T02:16:40;10.27;;;3.60;;
69629;SDS011;56857;52.212;5.496;2023-06-14T02:19:05;8.65;;;3.50;;
69629;SDS011;56857;52.212;5.496;2023-06-14T02:21:30;9.45;;;2.92;;
69629;SDS011;56857;52.212;5.496;2023-06-14T02:23:56;7.57;;;3.45;;
69629;SDS011;56857;52.212;5.496;2023-06-14T02:26:21;8.38;;;3.38;;
69629;SDS011;56857;52.212;5.496;2023-06-14T02:28:46;10.32;;;3.67;;
69629;SDS011;56857;52.212;5.496;2023-06-14T02:31:12;10.73;;;3.30;;
69629;SDS011;56857;52.212;5.496;2023-06-14T02:33:37;6.82;;;3.15;;
69629;SDS011;56857;52.212;5.496;2023-06-14T02:36:03;13.20;;;3.30;;
69629;SDS011;56857;52.212;5.496;2023-06-14T02:38:28;6.53;;;2.80;;
69629;SDS011;56857;52.212;5.496;2023-06-14T02:40:54;8.80;;;3.15;;
69629;SDS011;56857;52.212;5.496;2023-06-14T02:43:19;11.52;;;3.42;;
69629;SDS011;56857;52.212;5.496;2023-06-14T02:45:44;8.57;;;3.38;;
69629;SDS011;56857;52.212;5.496;2023-06-14T02:48:09;7.40;;;2.80;;
69629;SDS011;56857;52.212;5.496;2023-06-14T02:50:35;9.05;;;3.42;;
69629;SDS011;56857;52.212;5.496;2023-06-14T02:53:00;12.53;;;3.27;;
69629;SDS011;56857;52.212;5.496;2023-06-14T02:55:25;7.45;;;2.90;;
69629;SDS011;56857;52.212;5.496;2023-06-14T02:57:51;6.63;;;2.75;;
69629;SDS011;56857;52.212;5.496;2023-06-14T03:00:16;7.25;;;3.47;;
69629;SDS011;56857;52.212;5.496;2023-06-14T03:02:42;10.07;;;3.47;;
69629;SDS011;56857;52.212;5.496;2023-06-14T03:05:07;9.53;;;2.93;;
69629;SDS011;56857;52.212;5.496;2023-06-14T03:07:33;9.27;;;3.53;;
69629;SDS011;56857;52.212;5.496;2023-06-14T03:09:59;7.55;;;3.53;;
69629;SDS011;56857;52.212;5.496;2023-06-14T03:12:24;6.75;;;3.13;;
69629;SDS011;56857;52.212;5.496;2023-06-14T03:14:49;6.97;;;2.97;;
69629;SDS011;56857;52.212;5.496;2023-06-14T03:17:15;7.90;;;3.00;;
69629;SDS011;56857;52.212;5.496;2023-06-14T03:19:40;8.52;;;3.15;;
69629;SDS011;56857;52.212;5.496;2023-06-14T03:22:05;9.50;;;3.00;;
69629;SDS011;56857;52.212;5.496;2023-06-14T03:24:31;11.48;;;3.17;;
69629;SDS011;56857;52.212;5.496;2023-06-14T03:26:56;7.13;;;3.53;;
69629;SDS011;56857;52.212;5.496;2023-06-14T03:29:21;10.55;;;3.33;;
69629;SDS011;56857;52.212;5.496;2023-06-14T03:32:00;7.97;;;3.20;;
69629;SDS011;56857;52.212;5.496;2023-06-14T03:34:26;8.40;;;2.97;;
69629;SDS011;56857;52.212;5.496;2023-06-14T03:36:52;8.13;;;2.90;;
69629;SDS011;56857;52.212;5.496;2023-06-14T03:39:17;6.70;;;2.85;;
69629;SDS011;56857;52.212;5.496;2023-06-14T03:41:43;8.88;;;3.10;;
69629;SDS011;56857;52.212;5.496;2023-06-14T03:44:08;7.20;;;2.83;;
69629;SDS011;56857;52.212;5.496;2023-06-14T03:46:33;9.20;;;3.47;;
69629;SDS011;56857;52.212;5.496;2023-06-14T03:48:59;7.22;;;2.75;;
69629;SDS011;56857;52.212;5.496;2023-06-14T03:51:24;10.73;;;3.00;;
69629;SDS011;56857;52.212;5.496;2023-06-14T03:53:49;9.75;;;3.72;;
69629;SDS011;56857;52.212;5.496;2023-06-14T03:56:15;6.90;;;2.90;;
69629;SDS011;56857;52.212;5.496;2023-06-14T03:58:40;8.98;;;3.45;;
69629;SDS011;56857;52.212;5.496;2023-06-14T04:01:05;9.07;;;3.20;;
69629;SDS011;56857;52.212;5.496;2023-06-14T04:03:31;7.93;;;3.03;;
69629;SDS011;56857;52.212;5.496;2023-06-14T04:05:59;10.85;;;3.63;;
69629;SDS011;56857;52.212;5.496;2023-06-14T04:08:25;8.05;;;3.20;;
69629;SDS011;56857;52.212;5.496;2023-06-14T04:10:50;8.30;;;2.85;;
69629;SDS011;56857;52.212;5.496;2023-06-14T04:13:16;7.35;;;2.80;;
69629;SDS011;56857;52.212;5.496;2023-06-14T04:15:41;8.85;;;3.10;;
69629;SDS011;56857;52.212;5.496;2023-06-14T04:18:07;7.35;;;3.33;;
69629;SDS011;56857;52.212;5.496;2023-06-14T04:20:33;7.63;;;3.05;;
69629;SDS011;56857;52.212;5.496;2023-06-14T04:23:10;8.52;;;3.10;;
69629;SDS011;56857;52.212;5.496;2023-06-14T04:25:36;9.15;;;3.05;;
69629;SDS011;56857;52.212;5.496;2023-06-14T04:28:02;8.60;;;3.22;;
69629;SDS011;56857;52.212;5.496;2023-06-14T04:30:27;11.23;;;3.35;;
69629;SDS011;56857;52.212;5.496;2023-06-14T04:32:52;9.90;;;3.35;;
69629;SDS011;56857;52.212;5.496;2023-06-14T04:35:18;10.07;;;3.45;;
69629;SDS011;56857;52.212;5.496;2023-06-14T04:37:43;12.20;;;3.70;;
69629;SDS011;56857;52.212;5.496;2023-06-14T04:40:09;10.60;;;3.70;;
69629;SDS011;56857;52.212;5.496;2023-06-14T04:42:34;8.90;;;3.35;;
69629;SDS011;56857;52.212;5.496;2023-06-14T04:45:00;10.00;;;3.33;;
69629;SDS011;56857;52.212;5.496;2023-06-14T04:47:25;10.30;;;3.78;;
69629;SDS011;56857;52.212;5.496;2023-06-14T04:49:51;7.95;;;3.00;;
69629;SDS011;56857;52.212;5.496;2023-06-14T04:52:16;9.80;;;3.95;;
69629;SDS011;56857;52.212;5.496;2023-06-14T04:54:41;9.80;;;3.30;;
69629;SDS011;56857;52.212;5.496;2023-06-14T04:57:07;8.02;;;3.55;;
69629;SDS011;56857;52.212;5.496;2023-06-14T04:59:32;7.95;;;3.45;;
69629;SDS011;56857;52.212;5.496;2023-06-14T05:01:58;7.85;;;3.15;;
69629;SDS011;56857;52.212;5.496;2023-06-14T05:04:23;9.25;;;3.58;;
69629;SDS011;56857;52.212;5.496;2023-06-14T05:06:48;8.98;;;3.40;;
69629;SDS011;56857;52.212;5.496;2023-06-14T05:09:14;7.10;;;2.90;;
69629;SDS011;56857;52.212;5.496;2023-06-14T05:11:40;9.93;;;3.20;;
69629;SDS011;56857;52.212;5.496;2023-06-14T05:14:06;8.45;;;3.30;;
69629;SDS011;56857;52.212;5.496;2023-06-14T05:16:31;9.25;;;3.03;;
69629;SDS011;56857;52.212;5.496;2023-06-14T05:18:57;8.00;;;3.20;;
69629;SDS011;56857;52.212;5.496;2023-06-14T05:21:22;8.25;;;3.10;;
69629;SDS011;56857;52.212;5.496;2023-06-14T05:23:47;12.23;;;3.17;;
69629;SDS011;56857;52.212;5.496;2023-06-14T05:26:13;5.50;;;2.80;;
69629;SDS011;56857;52.212;5.496;2023-06-14T05:28:38;8.73;;;3.58;;
69629;SDS011;56857;52.212;5.496;2023-06-14T05:31:03;8.85;;;3.55;;
69629;SDS011;56857;52.212;5.496;2023-06-14T05:33:29;12.10;;;3.10;;
69629;SDS011;56857;52.212;5.496;2023-06-14T05:35:54;8.75;;;3.55;;
69629;SDS011;56857;52.212;5.496;2023-06-14T05:38:19;9.75;;;3.53;;
69629;SDS011;56857;52.212;5.496;2023-06-14T05:40:45;8.13;;;3.65;;
69629;SDS011;56857;52.212;5.496;2023-06-14T05:43:10;11.10;;;3.30;;
69629;SDS011;56857;52.212;5.496;2023-06-14T05:45:35;9.15;;;3.60;;
69629;SDS011;56857;52.212;5.496;2023-06-14T05:48:01;8.07;;;3.35;;
69629;SDS011;56857;52.212;5.496;2023-06-14T05:50:26;7.47;;;3.60;;
69629;SDS011;56857;52.212;5.496;2023-06-14T05:52:52;7.43;;;3.05;;
69629;SDS011;56857;52.212;5.496;2023-06-14T05:55:18;6.65;;;2.90;;
69629;SDS011;56857;52.212;5.496;2023-06-14T05:57:44;10.20;;;3.40;;
69629;SDS011;56857;52.212;5.496;2023-06-14T06:00:09;7.22;;;3.05;;
69629;SDS011;56857;52.212;5.496;2023-06-14T06:02:35;9.38;;;2.85;;
69629;SDS011;56857;52.212;5.496;2023-06-14T06:05:01;9.15;;;2.72;;
69629;SDS011;56857;52.212;5.496;2023-06-14T06:07:26;8.15;;;3.30;;
69629;SDS011;56857;52.212;5.496;2023-06-14T06:09:51;8.23;;;3.47;;
69629;SDS011;56857;52.212;5.496;2023-06-14T06:12:16;5.65;;;2.75;;
69629;SDS011;56857;52.212;5.496;2023-06-14T06:14:42;7.13;;;3.70;;
69629;SDS011;56857;52.212;5.496;2023-06-14T06:17:07;8.30;;;3.17;;
69629;SDS011;56857;52.212;5.496;2023-06-14T06:19:32;8.38;;;3.15;;
69629;SDS011;56857;52.212;5.496;2023-06-14T06:21:58;8.00;;;3.05;;
69629;SDS011;56857;52.212;5.496;2023-06-14T06:24:23;9.38;;;3.13;;
69629;SDS011;56857;52.212;5.496;2023-06-14T06:26:48;7.80;;;3.25;;
69629;SDS011;56857;52.212;5.496;2023-06-14T06:29:14;7.22;;;3.30;;
69629;SDS011;56857;52.212;5.496;2023-06-14T06:31:39;7.25;;;2.72;;
69629;SDS011;56857;52.212;5.496;2023-06-14T06:34:04;8.05;;;2.65;;
69629;SDS011;56857;52.212;5.496;2023-06-14T06:36:29;7.53;;;3.17;;
69629;SDS011;56857;52.212;5.496;2023-06-14T06:38:55;9.20;;;2.95;;
69629;SDS011;56857;52.212;5.496;2023-06-14T06:41:20;6.40;;;3.05;;
69629;SDS011;56857;52.212;5.496;2023-06-14T06:43:45;5.75;;;2.80;;
69629;SDS011;56857;52.212;5.496;2023-06-14T06:46:11;10.90;;;3.13;;
69629;SDS011;56857;52.212;5.496;2023-06-14T06:48:36;31.50;;;4.70;;
69629;SDS011;56857;52.212;5.496;2023-06-14T06:51:01;9.23;;;3.25;;
69629;SDS011;56857;52.212;5.496;2023-06-14T06:53:27;5.47;;;3.05;;
69629;SDS011;56857;52.212;5.496;2023-06-14T06:55:52;8.55;;;3.03;;
69629;SDS011;56857;52.212;5.496;2023-06-14T06:58:17;11.27;;;3.10;;
69629;SDS011;56857;52.212;5.496;2023-06-14T07:00:42;8.13;;;3.58;;
69629;SDS011;56857;52.212;5.496;2023-06-14T07:03:08;8.17;;;3.00;;
69629;SDS011;56857;52.212;5.496;2023-06-14T07:05:33;6.75;;;3.20;;
69629;SDS011;56857;52.212;5.496;2023-06-14T07:07:58;7.30;;;3.17;;
69629;SDS011;56857;52.212;5.496;2023-06-14T07:10:24;8.88;;;2.63;;
69629;SDS011;56857;52.212;5.496;2023-06-14T07:12:49;8.50;;;3.30;;
69629;SDS011;56857;52.212;5.496;2023-06-14T07:15:15;8.38;;;3.33;;
69629;SDS011;56857;52.212;5.496;2023-06-14T07:17:41;9.07;;;3.38;;
69629;SDS011;56857;52.212;5.496;2023-06-14T07:20:07;8.48;;;3.63;;
69629;SDS011;56857;52.212;5.496;2023-06-14T07:22:33;6.90;;;3.00;;
69629;SDS011;56857;52.212;5.496;2023-06-14T07:24:59;9.93;;;2.90;;
69629;SDS011;56857;52.212;5.496;2023-06-14T07:27:24;7.82;;;2.72;;
69629;SDS011;56857;52.212;5.496;2023-06-14T07:29:49;7.10;;;2.70;;
69629;SDS011;56857;52.212;5.496;2023-06-14T07:32:15;6.35;;;2.50;;
69629;SDS011;56857;52.212;5.496;2023-06-14T07:34:40;6.55;;;2.80;;
69629;SDS011;56857;52.212;5.496;2023-06-14T07:37:05;7.65;;;2.40;;
69629;SDS011;56857;52.212;5.496;2023-06-14T07:39:30;9.52;;;2.90;;
69629;SDS011;56857;52.212;5.496;2023-06-14T07:41:56;9.85;;;2.90;;
69629;SDS011;56857;52.212;5.496;2023-06-14T07:44:21;7.68;;;2.60;;
69629;SDS011;56857;52.212;5.496;2023-06-14T07:46:46;6.70;;;2.63;;
69629;SDS011;56857;52.212;5.496;2023-06-14T07:49:12;8.13;;;2.38;;
69629;SDS011;56857;52.212;5.496;2023-06-14T07:51:37;5.38;;;2.53;;
69629;SDS011;56857;52.212;5.496;2023-06-14T07:54:03;9.25;;;2.45;;
69629;SDS011;56857;52.212;5.496;2023-06-14T07:56:28;4.80;;;2.45;;
69629;SDS011;56857;52.212;5.496;2023-06-14T07:58:53;7.47;;;2.80;;
69629;SDS011;56857;52.212;5.496;2023-06-14T08:01:19;8.55;;;2.78;;
69629;SDS011;56857;52.212;5.496;2023-06-14T08:03:44;8.77;;;2.10;;
69629;SDS011;56857;52.212;5.496;2023-06-14T08:06:09;6.07;;;2.63;;
69629;SDS011;56857;52.212;5.496;2023-06-14T08:08:34;6.05;;;2.47;;
69629;SDS011;56857;52.212;5.496;2023-06-14T08:11:00;5.87;;;2.40;;
69629;SDS011;56857;52.212;5.496;2023-06-14T08:13:25;6.93;;;2.20;;
69629;SDS011;56857;52.212;5.496;2023-06-14T08:15:50;4.78;;;1.90;;
69629;SDS011;56857;52.212;5.496;2023-06-14T08:18:16;6.55;;;2.63;;
69629;SDS011;56857;52.212;5.496;2023-06-14T08:20:41;7.45;;;2.10;;
69629;SDS011;56857;52.212;5.496;2023-06-14T08:23:07;5.25;;;2.00;;
69629;SDS011;56857;52.212;5.496;2023-06-14T08:25:32;8.65;;;2.10;;
69629;SDS011;56857;52.212;5.496;2023-06-14T08:27:58;4.80;;;2.05;;
69629;SDS011;56857;52.212;5.496;2023-06-14T08:30:24;5.35;;;2.05;;
69629;SDS011;56857;52.212;5.496;2023-06-14T08:32:49;6.25;;;2.35;;
69629;SDS011;56857;52.212;5.496;2023-06-14T08:35:14;4.82;;;2.38;;
69629;SDS011;56857;52.212;5.496;2023-06-14T08:37:40;8.15;;;2.47;;
69629;SDS011;56857;52.212;5.496;2023-06-14T08:40:06;6.68;;;2.00;;
69629;SDS011;56857;52.212;5.496;2023-06-14T08:42:43;5.63;;;2.25;;
69629;SDS011;56857;52.212;5.496;2023-06-14T08:45:09;6.40;;;2.13;;
69629;SDS011;56857;52.212;5.496;2023-06-14T08:47:35;6.75;;;1.88;;
69629;SDS011;56857;52.212;5.496;2023-06-14T08:50:00;4.57;;;1.90;;
69629;SDS011;56857;52.212;5.496;2023-06-14T08:52:26;5.20;;;2.15;;
69629;SDS011;56857;52.212;5.496;2023-06-14T08:54:53;5.72;;;2.20;;
69629;SDS011;56857;52.212;5.496;2023-06-14T08:57:19;7.78;;;2.22;;
69629;SDS011;56857;52.212;5.496;2023-06-14T08:59:46;5.30;;;2.40;;
69629;SDS011;56857;52.212;5.496;2023-06-14T09:02:12;6.25;;;2.13;;
69629;SDS011;56857;52.212;5.496;2023-06-14T09:04:37;7.75;;;2.15;;
69629;SDS011;56857;52.212;5.496;2023-06-14T09:07:03;6.70;;;2.40;;
69629;SDS011;56857;52.212;5.496;2023-06-14T09:09:29;5.35;;;2.30;;
69629;SDS011;56857;52.212;5.496;2023-06-14T09:11:54;5.15;;;2.08;;
69629;SDS011;56857;52.212;5.496;2023-06-14T09:14:20;4.57;;;2.40;;
69629;SDS011;56857;52.212;5.496;2023-06-14T09:16:46;5.72;;;2.28;;
69629;SDS011;56857;52.212;5.496;2023-06-14T09:19:21;7.25;;;2.08;;
69629;SDS011;56857;52.212;5.496;2023-06-14T09:21:48;5.97;;;2.10;;
69629;SDS011;56857;52.212;5.496;2023-06-14T09:24:14;4.88;;;1.90;;
69629;SDS011;56857;52.212;5.496;2023-06-14T09:26:39;5.40;;;2.17;;
69629;SDS011;56857;52.212;5.496;2023-06-14T09:29:05;6.18;;;2.13;;
69629;SDS011;56857;52.212;5.496;2023-06-14T09:31:30;6.20;;;2.30;;
69629;SDS011;56857;52.212;5.496;2023-06-14T09:33:56;4.57;;;2.00;;
69629;SDS011;56857;52.212;5.496;2023-06-14T09:36:22;6.05;;;2.20;;
69629;SDS011;56857;52.212;5.496;2023-06-14T09:38:53;7.72;;;2.05;;
69629;SDS011;56857;52.212;5.496;2023-06-14T09:41:19;5.57;;;2.00;;
69629;SDS011;56857;52.212;5.496;2023-06-14T09:43:44;6.70;;;1.92;;
69629;SDS011;56857;52.212;5.496;2023-06-14T09:46:11;3.72;;;1.60;;
69629;SDS011;56857;52.212;5.496;2023-06-14T09:48:38;6.28;;;2.47;;
69629;SDS011;56857;52.212;5.496;2023-06-14T09:51:03;7.03;;;2.10;;
69629;SDS011;56857;52.212;5.496;2023-06-14T09:53:30;5.95;;;1.80;;
69629;SDS011;56857;52.212;5.496;2023-06-14T09:55:57;5.72;;;1.83;;
69629;SDS011;56857;52.212;5.496;2023-06-14T09:58:25;4.85;;;1.70;;
69629;SDS011;56857;52.212;5.496;2023-06-14T10:00:53;5.35;;;1.70;;
69629;SDS011;56857;52.212;5.496;2023-06-14T10:03:21;5.30;;;1.65;;
69629;SDS011;56857;52.212;5.496;2023-06-14T10:05:52;5.88;;;1.75;;
69629;SDS011;56857;52.212;5.496;2023-06-14T10:08:22;3.83;;;1.80;;
69629;SDS011;56857;52.212;5.496;2023-06-14T10:10:50;4.28;;;1.70;;
69629;SDS011;56857;52.212;5.496;2023-06-14T10:13:15;6.15;;;1.92;;
69629;SDS011;56857;52.212;5.496;2023-06-14T10:15:48;4.72;;;1.65;;
69629;SDS011;56857;52.212;5.496;2023-06-14T10:21:32;5.32;;;1.63;;
69629;SDS011;56857;52.212;5.496;2023-06-14T10:24:03;4.55;;;1.60;;
69629;SDS011;56857;52.212;5.496;2023-06-14T10:26:32;2.72;;;1.45;;
69629;SDS011;56857;52.212;5.496;2023-06-14T10:29:01;4.20;;;1.60;;
69629;SDS011;56857;52.212;5.496;2023-06-14T10:34:24;3.35;;;1.42;;
69629;SDS011;56857;52.212;5.496;2023-06-14T10:39:32;3.35;;;1.50;;
69629;SDS011;56857;52.212;5.496;2023-06-14T10:42:04;7.13;;;1.98;;
69629;SDS011;56857;52.212;5.496;2023-06-14T10:46:58;5.82;;;1.55;;
69629;SDS011;56857;52.212;5.496;2023-06-14T10:49:42;5.18;;;1.30;;
69629;SDS011;56857;52.212;5.496;2023-06-14T10:52:09;5.88;;;1.60;;
69629;SDS011;56857;52.212;5.496;2023-06-14T10:54:38;3.47;;;1.55;;
69629;SDS011;56857;52.212;5.496;2023-06-14T10:57:03;3.25;;;1.45;;
69629;SDS011;56857;52.212;5.496;2023-06-14T10:59:32;2.80;;;1.33;;
69629;SDS011;56857;52.212;5.496;2023-06-14T11:02:10;5.25;;;1.73;;
69629;SDS011;56857;52.212;5.496;2023-06-14T11:05:02;4.75;;;1.73;;
69629;SDS011;56857;52.212;5.496;2023-06-14T11:10:40;4.70;;;1.60;;
69629;SDS011;56857;52.212;5.496;2023-06-14T11:12:39;5.63;;;1.73;;
69629;SDS011;56857;52.212;5.496;2023-06-14T11:15:06;3.92;;;1.40;;
69629;SDS011;56857;52.212;5.496;2023-06-14T11:17:32;3.20;;;1.40;;
69629;SDS011;56857;52.212;5.496;2023-06-14T11:20:10;6.97;;;1.58;;
69629;SDS011;56857;52.212;5.496;2023-06-14T11:22:43;6.00;;;1.83;;
69629;SDS011;56857;52.212;5.496;2023-06-14T11:25:09;5.28;;;1.77;;
69629;SDS011;56857;52.212;5.496;2023-06-14T11:27:35;5.35;;;1.50;;
69629;SDS011;56857;52.212;5.496;2023-06-14T11:30:00;7.20;;;1.65;;
69629;SDS011;56857;52.212;5.496;2023-06-14T11:32:26;4.85;;;1.45;;
69629;SDS011;56857;52.212;5.496;2023-06-14T11:34:51;4.38;;;1.40;;
69629;SDS011;56857;52.212;5.496;2023-06-14T11:37:17;4.63;;;1.73;;
69629;SDS011;56857;52.212;5.496;2023-06-14T11:39:45;4.65;;;1.70;;
69629;SDS011;56857;52.212;5.496;2023-06-14T11:42:17;3.50;;;1.65;;
69629;SDS011;56857;52.212;5.496;2023-06-14T11:44:42;5.28;;;1.50;;
69629;SDS011;56857;52.212;5.496;2023-06-14T11:47:07;5.18;;;1.50;;
69629;SDS011;56857;52.212;5.496;2023-06-14T11:49:36;3.80;;;1.50;;
69629;SDS011;56857;52.212;5.496;2023-06-14T11:52:01;4.13;;;1.38;;
69629;SDS011;56857;52.212;5.496;2023-06-14T11:54:27;5.15;;;1.77;;
69629;SDS011;56857;52.212;5.496;2023-06-14T11:56:53;6.13;;;1.67;;
69629;SDS011;56857;52.212;5.496;2023-06-14T11:59:18;7.93;;;1.60;;
69629;SDS011;56857;52.212;5.496;2023-06-14T12:01:47;5.32;;;1.50;;
69629;SDS011;56857;52.212;5.496;2023-06-14T12:04:12;4.43;;;1.42;;
69629;SDS011;56857;52.212;5.496;2023-06-14T12:06:38;3.47;;;1.30;;
69629;SDS011;56857;52.212;5.496;2023-06-14T12:09:04;6.78;;;1.90;;
69629;SDS011;56857;52.212;5.496;2023-06-14T12:11:34;5.72;;;1.48;;
69629;SDS011;56857;52.212;5.496;2023-06-14T12:14:00;3.05;;;1.40;;
69629;SDS011;56857;52.212;5.496;2023-06-14T12:16:33;4.88;;;1.63;;
69629;SDS011;56857;52.212;5.496;2023-06-14T12:19:01;3.63;;;1.55;;
69629;SDS011;56857;52.212;5.496;2023-06-14T12:21:32;6.43;;;1.50;;
69629;SDS011;56857;52.212;5.496;2023-06-14T12:23:58;5.93;;;1.60;;
69629;SDS011;56857;52.212;5.496;2023-06-14T12:26:24;4.65;;;1.55;;
69629;SDS011;56857;52.212;5.496;2023-06-14T12:28:51;7.60;;;1.70;;
69629;SDS011;56857;52.212;5.496;2023-06-14T12:31:16;4.28;;;1.50;;
69629;SDS011;56857;52.212;5.496;2023-06-14T12:33:42;4.50;;;1.70;;
69629;SDS011;56857;52.212;5.496;2023-06-14T12:36:08;6.57;;;1.80;;
69629;SDS011;56857;52.212;5.496;2023-06-14T12:38:34;4.50;;;1.80;;
69629;SDS011;56857;52.212;5.496;2023-06-14T12:41:00;4.15;;;1.60;;
69629;SDS011;56857;52.212;5.496;2023-06-14T12:43:26;6.25;;;1.90;;
69629;SDS011;56857;52.212;5.496;2023-06-14T12:45:51;6.30;;;1.85;;
69629;SDS011;56857;52.212;5.496;2023-06-14T12:48:16;6.18;;;1.60;;
69629;SDS011;56857;52.212;5.496;2023-06-14T12:50:42;7.13;;;1.85;;
69629;SDS011;56857;52.212;5.496;2023-06-14T12:53:07;5.72;;;1.60;;
69629;SDS011;56857;52.212;5.496;2023-06-14T12:55:33;5.35;;;1.67;;
69629;SDS011;56857;52.212;5.496;2023-06-14T12:57:58;5.70;;;1.58;;
69629;SDS011;56857;52.212;5.496;2023-06-14T13:00:23;4.90;;;1.50;;
69629;SDS011;56857;52.212;5.496;2023-06-14T13:02:49;7.22;;;1.80;;
69629;SDS011;56857;52.212;5.496;2023-06-14T13:05:14;4.57;;;1.70;;
69629;SDS011;56857;52.212;5.496;2023-06-14T13:07:39;3.40;;;1.45;;
69629;SDS011;56857;52.212;5.496;2023-06-14T13:10:05;5.38;;;1.50;;
69629;SDS011;56857;52.212;5.496;2023-06-14T13:12:31;3.20;;;1.48;;
69629;SDS011;56857;52.212;5.496;2023-06-14T13:14:56;4.43;;;1.75;;
69629;SDS011;56857;52.212;5.496;2023-06-14T13:17:29;8.20;;;1.80;;
69629;SDS011;56857;52.212;5.496;2023-06-14T13:19:54;7.80;;;1.88;;
69629;SDS011;56857;52.212;5.496;2023-06-14T13:22:20;6.85;;;1.70;;
69629;SDS011;56857;52.212;5.496;2023-06-14T13:24:45;4.80;;;1.70;;
69629;SDS011;56857;52.212;5.496;2023-06-14T13:27:10;5.82;;;1.60;;
69629;SDS011;56857;52.212;5.496;2023-06-14T13:29:36;5.60;;;1.92;;
69629;SDS011;56857;52.212;5.496;2023-06-14T13:32:02;5.90;;;1.40;;
69629;SDS011;56857;52.212;5.496;2023-06-14T13:34:28;4.22;;;1.23;;
69629;SDS011;56857;52.212;5.496;2023-06-14T13:36:53;4.00;;;1.42;;
69629;SDS011;56857;52.212;5.496;2023-06-14T13:39:19;7.30;;;1.88;;
69629;SDS011;56857;52.212;5.496;2023-06-14T13:41:44;3.92;;;1.60;;
69629;SDS011;56857;52.212;5.496;2023-06-14T13:44:09;4.47;;;1.60;;
69629;SDS011;56857;52.212;5.496;2023-06-14T13:46:34;5.93;;;1.80;;
69629;SDS011;56857;52.212;5.496;2023-06-14T13:49:00;4.88;;;1.90;;
69629;SDS011;56857;52.212;5.496;2023-06-14T13:51:25;9.90;;;1.88;;
69629;SDS011;56857;52.212;5.496;2023-06-14T13:53:50;5.17;;;1.67;;
69629;SDS011;56857;52.212;5.496;2023-06-14T13:56:18;6.80;;;1.85;;
69629;SDS011;56857;52.212;5.496;2023-06-14T13:58:45;5.50;;;1.90;;
69629;SDS011;56857;52.212;5.496;2023-06-14T14:01:10;4.05;;;1.80;;
69629;SDS011;56857;52.212;5.496;2023-06-14T14:03:36;3.17;;;1.55;;
69629;SDS011;56857;52.212;5.496;2023-06-14T14:06:01;4.10;;;1.85;;
69629;SDS011;56857;52.212;5.496;2023-06-14T14:08:27;4.78;;;2.15;;
69629;SDS011;56857;52.212;5.496;2023-06-14T14:10:53;9.63;;;2.10;;
69629;SDS011;56857;52.212;5.496;2023-06-14T14:13:18;7.00;;;1.80;;
69629;SDS011;56857;52.212;5.496;2023-06-14T14:15:44;3.80;;;1.60;;
69629;SDS011;56857;52.212;5.496;2023-06-14T14:18:09;9.15;;;1.92;;
69629;SDS011;56857;52.212;5.496;2023-06-14T14:20:34;4.43;;;1.63;;
69629;SDS011;56857;52.212;5.496;2023-06-14T14:23:00;6.53;;;1.73;;
69629;SDS011;56857;52.212;5.496;2023-06-14T14:25:25;6.00;;;1.88;;
69629;SDS011;56857;52.212;5.496;2023-06-14T14:27:50;3.27;;;1.53;;
69629;SDS011;56857;52.212;5.496;2023-06-14T14:30:15;4.95;;;1.90;;
69629;SDS011;56857;52.212;5.496;2023-06-14T14:32:41;5.23;;;1.70;;
69629;SDS011;56857;52.212;5.496;2023-06-14T14:35:06;6.13;;;1.90;;
69629;SDS011;56857;52.212;5.496;2023-06-14T14:37:32;5.25;;;1.75;;
69629;SDS011;56857;52.212;5.496;2023-06-14T14:39:57;4.53;;;1.65;;
69629;SDS011;56857;52.212;5.496;2023-06-14T14:42:23;7.70;;;1.77;;
69629;SDS011;56857;52.212;5.496;2023-06-14T14:44:48;6.22;;;1.90;;
69629;SDS011;56857;52.212;5.496;2023-06-14T14:47:13;6.33;;;1.77;;
69629;SDS011;56857;52.212;5.496;2023-06-14T14:49:39;8.68;;;2.10;;
69629;SDS011;56857;52.212;5.496;2023-06-14T14:52:04;6.85;;;1.90;;
69629;SDS011;56857;52.212;5.496;2023-06-14T14:54:30;3.80;;;1.70;;
69629;SDS011;56857;52.212;5.496;2023-06-14T14:56:55;5.20;;;2.03;;